Time;durP1;ratioP1;P1;durP2;ratioP2;P2;SDS_P1;SDS_P2;PMS_P1;PMS_P2;Temp;Humidity;BMP_temperature;BMP_pressure;BME280_temperature;BME280_humidity;BME280_pressure;Samples;Min_cycle;Max_cycle;Signal;HPM_P1;HPM_P2
2022/01/10 00:02:13;;;;;;;24.20;5.63;;;;;;;;;;5056605;28;20032;-74
2022/01/10 00:04:39;;;;;;;16.33;4.47;;;;;;;;;;5056685;28;20055;-74
2022/01/10 00:07:05;;;;;;;15.05;4.43;;;;;;;;;;5056454;28;20036;-73
2022/01/10 00:09:31;;;;;;;23.05;6.18;;;;;;;;;;5039530;28;20403;-73
2022/01/10 00:11:57;;;;;;;22.50;6.40;;;;;;;;;;5056299;28;20045;-74
2022/01/10 00:14:23;;;;;;;25.27;5.00;;;;;;;;;;5056549;28;20033;-74
2022/01/10 00:16:49;;;;;;;16.88;4.28;;;;;;;;;;5039681;28;20127;-73
2022/01/10 00:19:14;;;;;;;20.70;5.25;;;2.90;99.90;;;;;;5056469;28;20123;-73
2022/01/10 00:21:40;;;;;;;13.73;4.65;;;;;;;;;;5056992;28;20472;-74
2022/01/10 00:24:06;;;;;;;18.45;4.75;;;;;;;;;;5051815;22;20133;-70
2022/01/10 00:26:32;;;;;;;20.48;4.78;;;;;;;;;;5015878;28;20396;-70
2022/01/10 00:28:58;;;;;;;16.13;4.63;;;;;;;;;;5033681;28;20144;-71
2022/01/10 00:31:24;;;;;;;19.65;5.30;;;;;;;;;;5015717;28;20087;-69
2022/01/10 00:33:50;;;;;;;18.83;5.15;;;2.80;99.90;;;;;;5015978;28;20037;-69
2022/01/10 00:36:16;;;;;;;23.08;4.63;;;;;;;;;;4999836;28;20091;-69
2022/01/10 00:38:42;;;;;;;21.75;5.40;;;;;;;;;;4999471;28;20045;-70
2022/01/10 00:41:09;;;;;;;19.13;6.18;;;;;;;;;;4999192;28;20091;-69
2022/01/10 00:43:40;;;;;;;21.13;5.80;;;;;;;;;;5015888;28;20048;-69
2022/01/10 00:46:05;;;;;;;13.98;5.32;;;2.60;99.90;;;;;;4999516;28;20053;-69
2022/01/10 00:48:32;;;;;;;17.05;5.32;;;2.80;99.90;;;;;;4999680;28;20038;-70
2022/01/10 00:50:58;;;;;;;16.40;5.05;;;;;;;;;;4998811;28;20084;-69
2022/01/10 00:53:25;;;;;;;15.85;4.25;;;;;;;;;;4999123;28;20048;-69
2022/01/10 00:55:51;;;;;;;19.35;5.07;;;2.60;99.90;;;;;;4999206;28;20041;-69
2022/01/10 00:58:17;;;;;;;17.77;5.10;;;;;;;;;;4999101;28;20041;-69
2022/01/10 01:00:43;;;;;;;15.50;4.43;;;;;;;;;;4998810;28;20496;-70
2022/01/10 01:03:09;;;;;;;12.73;5.05;;;;;;;;;;4998940;28;20037;-69
2022/01/10 01:05:39;;;;;;;13.63;3.97;;;;;;;;;;4998965;28;20179;-69
2022/01/10 01:08:07;;;;;;;12.45;4.25;;;;;;;;;;4999260;28;20118;-69
2022/01/10 01:13:09;;;;;;;13.15;4.38;;;;;;;;;;5015007;28;20116;-69
2022/01/10 01:15:47;;;;;;;13.85;4.03;;;2.10;99.90;;;;;;4998737;28;20045;-69
2022/01/10 01:18:21;;;;;;;19.27;4.75;;;;;;;;;;4998815;28;20033;-69
2022/01/10 01:26:16;;;;;;;17.67;5.15;;;2.00;99.90;;;;;;5014791;28;20057;-69
2022/01/10 01:28:42;;;;;;;12.52;4.25;;;;;;;;;;4998663;28;20128;-70
2022/01/10 01:31:08;;;;;;;12.05;4.55;;;;;;;;;;4998249;28;20461;-69
2022/01/10 01:33:34;;;;;;;16.23;4.60;;;;;;;;;;4998441;28;20488;-69
2022/01/10 01:36:00;;;;;;;16.10;5.07;;;;;;;;;;4998250;28;20083;-68
2022/01/10 01:38:26;;;;;;;16.17;5.05;;;;;;;;;;4997647;28;20099;-69
2022/01/10 01:41:10;;;;;;;15.80;4.72;;;;;;;;;;4997946;28;20042;-69
2022/01/10 01:43:36;;;;;;;;;;;;;;;;;;4998529;28;20497;-69
2022/01/10 01:46:02;;;;;;;15.35;4.93;;;;;;;;;;4998017;28;19917;-69
2022/01/10 01:48:28;;;;;;;16.30;4.70;;;;;;;;;;4998315;28;20132;-68
2022/01/10 01:50:54;;;;;;;12.07;4.40;;;;;;;;;;5014082;28;20563;-68
2022/01/10 01:53:20;;;;;;;15.85;4.72;;;;;;;;;;4997802;28;20041;-68
2022/01/10 01:55:47;;;;;;;17.17;5.60;;;;;;;;;;4997773;28;20041;-68
2022/01/10 01:58:13;;;;;;;18.38;5.55;;;;;;;;;;4997769;28;20047;-69
2022/01/10 02:00:39;;;;;;;14.65;4.95;;;;;;;;;;4997670;28;20132;-70
2022/01/10 02:03:05;;;;;;;12.07;5.15;;;;;;;;;;4997734;28;20048;-68
2022/01/10 02:05:30;;;;;;;20.02;6.32;;;1.80;99.90;;;;;;4997357;28;20037;-68
2022/01/10 02:07:56;;;;;;;13.32;4.97;;;1.70;99.90;;;;;;5014233;28;20034;-68
2022/01/10 02:10:22;;;;;;;11.75;5.40;;;;;;;;;;5014000;28;20451;-69
2022/01/10 02:12:48;;;;;;;20.52;5.90;;;;;;;;;;4997705;28;20064;-68
2022/01/10 02:15:32;;;;;;;16.23;5.15;;;;;;;;;;4997399;28;20049;-68
2022/01/10 02:18:00;;;;;;;;;;;;;;;;;;4998007;28;20523;-69
2022/01/10 02:20:31;;;;;;;19.65;5.80;;;1.50;99.90;;;;;;4997364;28;19917;-69
2022/01/10 02:22:57;;;;;;;13.93;5.70;;;;;;;;;;4997680;28;20073;-68
2022/01/10 02:25:23;;;;;;;14.23;4.70;;;;;;;;;;4997412;28;20045;-68
2022/01/10 02:27:49;;;;;;;15.40;5.43;;;;;;;;;;4997297;28;20037;-69
2022/01/10 02:30:16;;;;;;;19.02;5.63;;;1.30;99.90;;;;;;4997197;28;20037;-68
2022/01/10 02:32:42;;;;;;;10.32;4.88;;;;;;;;;;4997349;28;20045;-69
2022/01/10 02:35:21;;;;;;;16.17;4.82;;;1.40;99.90;;;;;;4997231;28;20041;-69
2022/01/10 02:37:48;;;;;;;17.20;5.38;;;;;;;;;;4997629;28;20401;-68
2022/01/10 02:40:15;;;;;;;13.77;4.90;;;1.40;99.90;;;;;;4997082;28;20038;-69
2022/01/10 02:42:43;;;;;;;14.30;5.28;;;;;;;;;;4997307;28;20077;-69
2022/01/10 02:45:09;;;;;;;19.77;6.03;;;;;;;;;;4997372;28;20095;-70
2022/01/10 02:47:36;;;;;;;10.10;4.57;;;;;;;;;;4997232;28;20041;-70
2022/01/10 02:50:03;;;;;;;12.38;4.93;;;;;;;;;;4996577;28;20052;-69
2022/01/10 02:52:29;;;;;;;18.65;7.65;;;;;;;;;;4997132;28;20045;-68
2022/01/10 02:54:57;;;;;;;18.60;5.93;;;;;;;;;;4997185;28;20099;-69
2022/01/10 02:57:24;;;;;;;11.13;5.30;;;;;;;;;;4997346;28;20400;-69
2022/01/10 02:59:50;;;;;;;13.55;5.18;;;;;;;;;;4997007;28;20048;-69
2022/01/10 03:02:21;;;;;;;14.65;6.07;;;1.50;99.90;;;;;;4997199;28;20041;-69
2022/01/10 03:04:47;;;;;;;14.82;5.38;;;;;;;;;;4997080;28;20045;-69
2022/01/10 03:07:17;;;;;;;18.27;5.18;;;;;;;;;;4997048;28;20038;-68
2022/01/10 03:09:43;;;;;;;11.57;5.43;;;;;;;;;;4996547;28;20077;-69
2022/01/10 03:12:09;;;;;;;15.00;5.75;;;;;;;;;;4996923;28;20073;-68
2022/01/10 03:14:36;;;;;;;13.52;5.43;;;;;;;;;;4996808;28;20524;-69
2022/01/10 03:17:02;;;;;;;18.67;6.38;;;;;;;;;;5013519;28;20042;-69
2022/01/10 03:19:28;;;;;;;17.50;7.32;;;;;;;;;;4996612;28;20571;-69
2022/01/10 03:21:54;;;;;;;13.88;5.82;;;;;;;;;;5013064;28;20529;-68
2022/01/10 03:24:20;;;;;;;13.02;6.28;;;;;;;;;;4996651;28;20053;-69
2022/01/10 03:26:46;;;;;;;13.98;5.00;;;;;;;;;;4996762;28;20041;-69
2022/01/10 03:29:12;;;;;;;16.17;5.47;;;;;;;;;;4996487;28;20132;-70
2022/01/10 03:31:38;;;;;;;17.50;5.93;;;;;;;;;;4996972;28;20061;-69
2022/01/10 03:34:06;;;;;;;14.07;5.57;;;;;;;;;;4997050;28;20467;-70
2022/01/10 03:36:32;;;;;;;18.35;8.07;;;;;;;;;;4996639;28;20504;-69
2022/01/10 03:38:58;;;;;;;14.88;5.90;;;;;;;;;;4996431;28;20033;-69
2022/01/10 03:41:24;;;;;;;14.73;6.88;;;;;;;;;;4996873;28;20061;-70
2022/01/10 03:43:50;;;;;;;16.33;5.97;;;;;;;;;;4996647;28;20520;-68
2022/01/10 03:46:16;;;;;;;12.30;5.75;;;;;;;;;;4996949;28;20048;-68
2022/01/10 03:48:42;;;;;;;15.50;6.57;;;;;;;;;;4996631;28;20539;-69
2022/01/10 03:51:08;;;;;;;12.25;5.85;;;;;;;;;;5012621;28;20048;-68
2022/01/10 03:53:36;;;;;;;20.98;6.32;;;;;;;;;;4996729;28;20044;-68
2022/01/10 03:56:02;;;;;;;14.35;7.22;;;1.10;99.90;;;;;;4996501;28;20394;-69
2022/01/10 03:58:28;;;;;;;12.23;6.03;;;;;;;;;;4996662;28;20037;-69
2022/01/10 04:00:54;;;;;;;20.30;8.07;;;;;;;;;;4996411;28;20048;-68
2022/01/10 04:03:20;;;;;;;20.20;7.32;;;;;;;;;;5000025;28;20126;-69
2022/01/10 04:05:46;;;;;;;23.65;7.07;;;;;;;;;;5016449;28;20088;-69
2022/01/10 04:08:12;;;;;;;14.98;6.32;;;;;;;;;;5000359;28;20119;-68
2022/01/10 04:10:38;;;;;;;19.45;6.60;;;;;;;;;;5000025;28;20046;-68
2022/01/10 04:13:04;;;;;;;23.63;7.53;;;;;;;;;;4999924;28;20390;-69
2022/01/10 04:15:30;;;;;;;20.67;7.03;;;;;;;;;;4999990;28;20124;-69
2022/01/10 04:17:59;;;;;;;16.65;6.95;;;;;;;;;;5000186;28;20077;-69
2022/01/10 04:20:25;;;;;;;15.73;7.00;;;;;;;;;;4999500;28;20037;-68
2022/01/10 04:22:51;;;;;;;12.07;6.78;;;;;;;;;;4999882;28;20516;-69
2022/01/10 04:25:18;;;;;;;16.85;7.10;;;1.20;99.90;;;;;;4999668;28;20041;-68
2022/01/10 04:27:44;;;;;;;18.02;6.80;;;;;;;;;;4999809;28;20045;-67
2022/01/10 04:30:10;;;;;;;15.30;7.38;;;;;;;;;;5016051;28;20048;-69
2022/01/10 04:32:37;;;;;;;15.43;7.60;;;;;;;;;;4999548;28;20049;-68
2022/01/10 04:35:03;;;;;;;17.67;7.93;;;;;;;;;;4999498;28;20037;-68
2022/01/10 04:37:29;;;;;;;15.77;7.28;;;;;;;;;;4999545;28;20564;-68
2022/01/10 04:39:55;;;;;;;12.02;6.78;;;;;;;;;;5015924;28;20202;-68
2022/01/10 04:42:21;;;;;;;15.75;7.47;;;;;;;;;;4999767;28;20037;-68
2022/01/10 04:44:49;;;;;;;18.83;8.73;;;;;;;;;;4999403;28;20529;-68
2022/01/10 04:47:15;;;;;;;16.92;7.70;;;;;;;;;;4999307;28;20527;-69
2022/01/10 04:50:18;;;;;;;17.35;8.20;;;;;;;;;;4999332;28;20072;-68
2022/01/10 04:52:28;;;;;;;24.75;8.35;;;;;;;;;;5015235;28;20049;-69
2022/01/10 04:54:54;;;;;;;28.02;9.75;;;;;;;;;;4999148;28;20033;-68
2022/01/10 04:57:20;;;;;;;19.88;8.23;;;1.00;99.90;;;;;;5015484;28;20132;-68
2022/01/10 04:59:46;;;;;;;17.98;8.70;;;;;;;;;;4999327;28;20469;-69
2022/01/10 05:02:12;;;;;;;20.55;9.15;;;;;;;;;;4999227;28;20124;-69
2022/01/10 05:04:38;;;;;;;22.30;8.70;;;0.90;99.90;;;;;;4999211;28;20500;-69
2022/01/10 05:07:04;;;;;;;15.57;8.43;;;;;;;;;;4999424;28;20128;-68
2022/01/10 05:09:30;;;;;;;19.73;8.70;;;0.90;99.90;;;;;;4998700;28;20041;-69
2022/01/10 05:11:56;;;;;;;21.52;8.93;;;;;;;;;;5015323;28;20042;-68
2022/01/10 05:14:22;;;;;;;24.85;9.45;;;0.90;99.90;;;;;;4999006;28;20045;-69
2022/01/10 05:16:48;;;;;;;17.98;8.48;;;0.90;99.90;;;;;;4998832;28;20038;-69
2022/01/10 05:19:14;;;;;;;21.65;9.23;;;;;;;;;;4998465;28;20033;-69
2022/01/10 05:21:40;;;;;;;21.50;9.02;;;;;;;;;;4998805;28;20042;-69
2022/01/10 05:24:07;;;;;;;19.23;9.48;;;0.90;99.90;;;;;;4998418;28;20049;-69
2022/01/10 05:26:33;;;;;;;26.75;10.57;;;;;;;;;;4998606;28;20053;-68
2022/01/10 05:29:00;;;;;;;20.42;10.63;;;;;;;;;;4998399;28;20527;-69
2022/01/10 05:31:27;;;;;;;26.02;10.15;;;;;;;;;;4998614;28;20085;-69
2022/01/10 05:33:53;;;;;;;24.92;10.38;;;;;;;;;;4998459;28;20505;-69
2022/01/10 05:36:19;;;;;;;22.00;10.45;;;;;;;;;;4998503;28;20038;-68
2022/01/10 05:38:45;;;;;;;23.25;10.07;;;;;;;;;;4998332;28;20037;-68
2022/01/10 05:41:11;;;;;;;19.20;10.05;;;;;;;;;;4998371;28;20063;-69
2022/01/10 05:43:38;;;;;;;28.08;11.43;;;;;;;;;;4998394;28;20041;-69
2022/01/10 05:46:07;;;;;;;25.52;11.90;;;;;;;;;;4998478;28;20049;-68
2022/01/10 05:48:34;;;;;;;24.13;10.90;;;;;;;;;;4998470;28;20039;-69
2022/01/10 05:51:00;;;;;;;24.27;11.18;;;;;;;;;;4997972;28;20080;-68
2022/01/10 05:53:26;;;;;;;24.20;10.65;;;0.80;99.90;;;;;;4997920;28;20041;-68
2022/01/10 05:55:52;;;;;;;27.33;11.63;;;;;;;;;;4998190;28;20040;-68
2022/01/10 05:58:19;;;;;;;27.08;12.25;;;;;;;;;;4997940;28;20033;-69
2022/01/10 06:00:45;;;;;;;28.40;12.27;;;;;;;;;;4997893;28;20397;-68
2022/01/10 06:03:11;;;;;;;25.13;13.48;;;0.80;99.90;;;;;;4997828;28;20041;-69
2022/01/10 06:05:37;;;;;;;20.30;11.48;;;;;;;;;;5014576;28;20404;-68
2022/01/10 06:08:05;;;;;;;24.95;11.80;;;;;;;;;;4997771;28;20079;-67
2022/01/10 06:10:31;;;;;;;24.83;11.52;;;;;;;;;;5013986;28;20079;-69
2022/01/10 06:12:58;;;;;;;26.25;12.40;;;;;;;;;;4997636;28;20532;-69
2022/01/10 06:15:24;;;;;;;29.13;12.60;;;;;;;;;;4997819;28;20576;-69
2022/01/10 06:17:50;;;;;;;26.20;12.73;;;;;;;;;;4997826;28;20132;-69
2022/01/10 06:20:16;;;;;;;28.67;11.20;;;;;;;;;;4997405;28;20049;-69
2022/01/10 06:22:43;;;;;;;24.58;12.48;;;;;;;;;;4997824;28;20037;-69
2022/01/10 06:25:09;;;;;;;23.92;13.27;;;;;;;;;;5048500;23;20255;-74
2022/01/10 06:27:36;;;;;;;31.02;12.95;;;;;;;;;;5017521;28;20041;-74
2022/01/10 06:30:03;;;;;;;25.70;12.52;;;0.40;99.90;;;;;;5017608;28;20036;-74
2022/01/10 06:32:29;;;;;;;24.05;12.85;;;;;;;;;;5017544;28;20499;-74
2022/01/10 06:34:57;;;;;;;25.98;14.23;;;;;;;;;;5017339;28;20090;-75
2022/01/10 06:37:23;;;;;;;26.23;15.20;;;;;;;;;;5017556;28;20040;-74
2022/01/10 06:39:49;;;;;;;35.78;15.38;;;;;;;;;;5033761;28;20037;-75
2022/01/10 06:42:15;;;;;;;29.95;16.08;;;0.70;99.90;;;;;;5017336;28;20511;-75
2022/01/10 06:44:41;;;;;;;28.70;16.95;;;;;;;;;;5017223;28;20040;-74
2022/01/10 06:47:07;;;;;;;30.58;14.98;;;;;;;;;;5017551;28;20048;-75
2022/01/10 06:49:33;;;;;;;29.50;15.88;;;;;;;;;;5017028;28;20048;-74
2022/01/10 06:51:59;;;;;;;32.60;16.20;;;;;;;;;;5033573;28;20559;-74
2022/01/10 06:54:25;;;;;;;35.17;17.13;;;;;;;;;;5017217;28;20090;-75
2022/01/10 06:56:51;;;;;;;29.73;16.75;;;;;;;;;;5017023;28;20040;-74
2022/01/10 06:59:18;;;;;;;40.30;16.98;;;0.60;99.90;;;;;;5016893;28;20037;-74
2022/01/10 07:01:44;;;;;;;30.98;17.83;;;;;;;;;;5017396;28;20407;-74
2022/01/10 07:04:10;;;;;;;39.30;18.17;;;;;;;;;;5016968;28;20072;-74
2022/01/10 07:06:36;;;;;;;33.13;19.63;;;;;;;;;;5017039;28;20045;-72
2022/01/10 07:09:02;;;;;;;31.55;16.95;;;0.50;99.90;;;;;;5016765;28;20052;-71
2022/01/10 07:11:28;;;;;;;30.17;17.88;;;;;;;;;;5018367;28;20065;-73
2022/01/10 07:14:04;;;;;;;34.88;17.52;;;;;;;;;;5021294;28;20040;-72
2022/01/10 07:16:30;;;;;;;37.38;17.73;;;;;;;;;;5016596;28;20095;-72
2022/01/10 07:18:56;;;;;;;36.42;16.33;;;;;;;;;;5020754;28;20075;-71
2022/01/10 07:21:22;;;;;;;35.97;16.17;;;;;;;;;;5033404;28;20072;-73
2022/01/10 07:23:48;;;;;;;39.72;19.30;;;;;;;;;;5033409;28;20040;-75
2022/01/10 07:26:15;;;;;;;34.15;17.00;;;;;;;;;;5034038;28;20352;-74
2022/01/10 07:28:41;;;;;;;41.55;17.60;;;;;;;;;;5034019;28;20036;-75
2022/01/10 07:31:07;;;;;;;28.65;15.90;;;;;;;;;;5033699;28;20322;-72
2022/01/10 07:33:34;;;;;;;35.67;17.08;;;;;;;;;;5033473;28;20127;-73
2022/01/10 07:36:00;;;;;;;38.15;17.13;;;;;;;;;;5033610;28;20036;-72
2022/01/10 07:38:26;;;;;;;36.28;16.98;;;;;;;;;;5037297;28;20045;-72
2022/01/10 07:40:52;;;;;;;32.83;17.15;;;;;;;;;;5032671;28;20060;-74
2022/01/10 07:43:18;;;;;;;36.92;18.65;;;;;;;;;;5025286;28;20068;-75
2022/01/10 07:45:44;;;;;;;30.55;17.35;;;;;;;;;;5008969;28;20132;-74
2022/01/10 07:48:10;;;;;;;30.88;16.20;;;;;;;;;;5023835;28;20041;-74
2022/01/10 07:50:36;;;;;;;28.95;16.85;;;;;;;;;;5005839;28;20080;-73
2022/01/10 07:53:03;;;;;;;29.20;16.95;;;;;;;;;;5020616;28;20047;-74
2022/01/10 07:55:29;;;;;;;34.25;17.17;;;;;;;;;;5005371;28;20061;-71
2022/01/10 07:57:55;;;;;;;32.28;16.85;;;;;;;;;;5020621;28;20404;-72
2022/01/10 08:00:21;;;;;;;30.67;16.90;;;;;;;;;;5014474;28;20052;-72
2022/01/10 08:02:47;;;;;;;32.25;17.08;;;;;;;;;;5034416;28;20419;-73
2022/01/10 08:05:13;;;;;;;39.92;19.42;;;;;;;;;;5030087;28;20047;-72
2022/01/10 08:07:39;;;;;;;32.30;18.20;;;;;;;;;;5021901;28;20147;-73
2022/01/10 08:10:05;;;;;;;35.80;17.67;;;;;;;;;;5016146;28;20120;-73
2022/01/10 08:12:31;;;;;;;34.72;18.30;;;;;;;;;;5016085;28;20045;-73
2022/01/10 08:14:57;;;;;;;36.03;18.58;;;;;;;;;;5014627;28;20407;-73
2022/01/10 08:17:24;;;;;;;31.10;17.42;;;;;;;;;;5018972;28;20040;-74
2022/01/10 08:19:50;;;;;;;29.63;17.42;;;;;;;;;;5019494;28;20404;-75
2022/01/10 08:22:16;;;;;;;32.80;17.25;;;;;;;;;;5016387;28;20124;-76
2022/01/10 08:24:42;;;;;;;34.67;19.17;;;;;;;;;;5018735;28;20603;-76
2022/01/10 08:27:08;;;;;;;31.27;17.02;;;;;;;;;;5019995;28;20132;-76
2022/01/10 08:29:34;;;;;;;33.10;18.58;;;;;;;;;;5019450;28;20599;-75
2022/01/10 08:32:00;;;;;;;30.67;18.20;;;;;;;;;;5036445;28;20051;-76
2022/01/10 08:34:26;;;;;;;28.30;18.27;;;;;;;;;;5019437;28;20037;-75
2022/01/10 08:36:54;;;;;;;35.53;18.20;;;;;;;;;;5019581;28;20090;-76
2022/01/10 08:39:20;;;;;;;30.13;17.88;;;0.40;99.90;;;;;;5018960;28;20073;-75
2022/01/10 08:41:46;;;;;;;34.42;18.15;;;;;;;;;;5019923;28;20048;-76
2022/01/10 08:44:14;;;;;;;29.05;17.20;;;0.50;99.90;;;;;;5019461;28;20400;-76
2022/01/10 08:46:41;;;;;;;36.78;18.58;;;;;;;;;;5019162;28;20043;-76
2022/01/10 08:49:07;;;;;;;28.10;17.92;;;;;;;;;;5018625;28;20080;-75
2022/01/10 08:51:34;;;;;;;31.40;18.15;;;;;;;;;;5019545;28;20073;-76
2022/01/10 08:54:01;;;;;;;31.42;19.00;;;0.80;99.90;;;;;;5019195;28;20091;-76
2022/01/10 08:56:28;;;;;;;30.17;18.30;;;;;;;;;;5019307;28;20033;-76
2022/01/10 08:58:54;;;;;;;31.45;18.85;;;;;;;;;;5018970;28;20037;-75
2022/01/10 09:01:21;;;;;;;29.77;19.30;;;;;;;;;;5035160;28;20098;-76
2022/01/10 09:03:47;;;;;;;35.92;20.42;;;;;;;;;;5018929;28;20041;-76
2022/01/10 09:06:13;;;;;;;36.92;19.85;;;1.20;99.90;;;;;;5019013;28;20123;-76
2022/01/10 09:08:41;;;;;;;33.33;20.50;;;;;;;;;;5018880;28;20041;-76
2022/01/10 09:11:07;;;;;;;36.92;21.42;;;;;;;;;;5035237;28;20041;-76
2022/01/10 09:13:33;;;;;;;34.42;18.67;;;;;;;;;;5018917;28;20132;-76
2022/01/10 09:16:02;;;;;;;39.72;21.45;;;;;;;;;;5019243;28;20315;-75
2022/01/10 09:18:28;;;;;;;42.22;23.85;;;;;;;;;;5035133;28;20036;-74
2022/01/10 09:20:55;;;;;;;36.47;21.48;;;;;;;;;;5035163;28;20044;-75
2022/01/10 09:23:22;;;;;;;40.35;22.15;;;;;;;;;;5035350;28;20048;-75
2022/01/10 09:25:49;;;;;;;46.00;25.40;;;;;;;;;;5034956;28;20055;-74
2022/01/10 09:28:15;;;;;;;37.60;23.35;;;;;;;;;;5035189;28;20173;-75
2022/01/10 09:30:42;;;;;;;39.28;21.83;;;;;;;;;;5034746;28;20055;-75
2022/01/10 09:33:08;;;;;;;36.05;21.63;;;;;;;;;;5035603;28;20608;-75
2022/01/10 09:35:34;;;;;;;43.75;24.23;;;;;;;;;;5037619;28;20098;-77
2022/01/10 09:38:00;;;;;;;41.35;24.10;;;;;;;;;;5036327;28;20047;-74
2022/01/10 09:40:26;;;;;;;37.10;20.63;;;;;;;;;;5037559;28;20132;-76
2022/01/10 09:42:52;;;;;;;48.10;23.45;;;;;;;;;;5038274;28;20136;-75
2022/01/10 09:45:18;;;;;;;43.08;23.13;;;;;;;;;;5054418;28;20384;-75
2022/01/10 09:47:44;;;;;;;43.17;20.80;;;;;;;;;;5037987;28;20399;-75
2022/01/10 09:50:15;;;;;;;40.70;21.58;;;2.20;99.90;;;;;;5037525;28;20040;-75
2022/01/10 09:52:41;;;;;;;37.03;22.35;;;;;;;;;;5038102;28;20078;-76
2022/01/10 09:55:07;;;;;;;37.33;21.65;;;;;;;;;;5038182;28;20036;-76
2022/01/10 09:57:33;;;;;;;44.90;22.30;;;;;;;;;;5037772;28;20507;-76
2022/01/10 10:00:00;;;;;;;37.53;20.33;;;;;;;;;;5036519;28;20507;-75
2022/01/10 10:02:32;;;;;;;40.20;22.17;;;;;;;;;;5037518;28;20523;-75
2022/01/10 10:05:01;;;;;;;41.83;22.48;;;2.40;99.90;;;;;;5037437;28;20045;-76
2022/01/10 10:07:27;;;;;;;41.20;22.10;;;;;;;;;;5037656;28;20079;-77
2022/01/10 10:09:57;;;;;;;42.65;25.38;;;;;;;;;;5034668;28;20069;-77
2022/01/10 10:12:27;;;;;;;41.15;24.35;;;;;;;;;;5017322;28;20563;-77
2022/01/10 10:14:53;;;;;;;40.13;23.98;;;;;;;;;;5017548;28;20128;-77
2022/01/10 10:17:21;;;;;;;42.33;22.73;;;2.70;99.90;;;;;;5017888;28;20131;-78
2022/01/10 10:19:47;;;;;;;44.25;24.00;;;;;;;;;;5017472;28;20128;-77
2022/01/10 10:22:17;;;;;;;41.72;23.55;;;2.90;99.90;;;;;;5017568;28;20118;-77
2022/01/10 10:24:46;;;;;;;40.88;25.60;;;;;;;;;;5017419;28;20496;-78
2022/01/10 10:27:16;;;;;;;43.65;22.75;;;3.00;99.90;;;;;;5017317;28;20072;-77
2022/01/10 10:29:43;;;;;;;41.38;23.13;;;;;;;;;;5017266;28;20169;-76
2022/01/10 10:32:09;;;;;;;42.55;23.48;;;;;;;;;;5017397;28;20536;-77
2022/01/10 10:34:35;;;;;;;48.30;24.58;;;;;;;;;;5017556;28;20149;-77
2022/01/10 10:37:11;;;;;;;40.45;23.38;;;3.20;99.90;;;;;;5034346;28;20099;-77
2022/01/10 10:39:41;;;;;;;43.28;25.48;;;3.10;99.90;;;;;;5033416;28;20508;-77
2022/01/10 10:42:11;;;;;;;46.53;26.00;;;;;;;;;;5017422;28;20052;-77
2022/01/10 10:44:37;;;;;;;45.70;25.08;;;;;;;;;;5017427;28;20076;-77
2022/01/10 10:47:04;;;;;;;62.33;24.55;;;;;;;;;;5017201;28;20095;-78
2022/01/10 10:49:35;;;;;;;48.53;25.50;;;3.30;99.90;;;;;;5033741;28;20041;-77
2022/01/10 10:52:05;;;;;;;48.67;24.63;;;3.50;99.90;;;;;;5017195;28;20045;-78
2022/01/10 10:54:32;;;;;;;42.78;24.80;;;;;;;;;;5017455;28;20081;-78
2022/01/10 10:57:02;;;;;;;45.65;26.08;;;;;;;;;;5017931;28;20128;-77
2022/01/10 10:59:35;;;;;;;41.95;23.77;;;;;;;;;;5016960;28;20064;-77
2022/01/10 11:02:02;;;;;;;39.28;24.15;;;;;;;;;;5017456;28;20053;-78
2022/01/10 11:04:29;;;;;;;45.08;22.95;;;;;;;;;;5017564;28;20126;-78
2022/01/10 11:06:56;;;;;;;52.13;23.55;;;;;;;;;;5016972;28;20048;-77
2022/01/10 11:09:22;;;;;;;44.88;24.65;;;;;;;;;;5015442;28;20069;-77
2022/01/10 11:11:48;;;;;;;44.08;25.08;;;3.90;99.90;;;;;;5019721;28;20130;-76
2022/01/10 11:14:14;;;;;;;38.53;23.25;;;;;;;;;;5037264;28;20572;-76
2022/01/10 11:16:46;;;;;;;45.78;22.50;;;3.90;99.90;;;;;;5021385;28;20080;-77
2022/01/10 11:19:24;;;;;;;48.85;23.52;;;3.80;99.90;;;;;;5022657;28;20056;-76
2022/01/10 11:21:54;;;;;;;37.55;22.50;;;3.90;99.90;;;;;;5020887;28;20041;-75
2022/01/10 11:24:39;;;;;;;41.28;22.50;;;;;;;;;;5023443;28;20052;-74
2022/01/10 11:27:08;;;;;;;49.20;22.92;;;;;;;;;;5031428;28;20041;-74
2022/01/10 11:29:40;;;;;;;41.28;22.45;;;;;;;;;;4997589;28;20048;-74
2022/01/10 11:32:07;;;;;;;39.15;23.02;;;4.40;99.90;;;;;;4999532;28;20042;-75
2022/01/10 11:34:33;;;;;;;47.42;22.42;;;;;;;;;;5034530;28;20062;-76
2022/01/10 11:36:59;;;;;;;43.45;22.08;;;;;;;;;;5018082;28;20552;-75
2022/01/10 11:39:34;;;;;;;40.45;23.10;;;;;;;;;;5015323;28;20034;-75
2022/01/10 11:42:02;;;;;;;44.03;23.60;;;;;;;;;;5016264;28;20037;-74
2022/01/10 11:44:28;;;;;;;40.88;21.70;;;;;;;;;;5052071;28;20040;-75
2022/01/10 11:46:59;;;;;;;42.53;22.30;;;4.30;99.90;;;;;;5053025;28;20094;-75
2022/01/10 11:49:25;;;;;;;43.30;22.15;;;;;;;;;;5020214;28;20040;-75
2022/01/10 11:51:51;;;;;;;46.42;23.23;;;;;;;;;;5050732;28;20075;-74
2022/01/10 11:54:30;;;;;;;40.50;22.88;;;4.40;99.90;;;;;;5040109;28;20064;-75
2022/01/10 11:56:56;;;;;;;37.15;21.85;;;;;;;;;;5057080;28;20033;-75
2022/01/10 11:59:26;;;;;;;36.83;22.10;;;;;;;;;;5056272;28;20036;-75
2022/01/10 12:01:54;;;;;;;39.88;22.45;;;;;;;;;;5056189;28;20135;-74
2022/01/10 12:04:22;;;;;;;46.33;23.05;;;;;;;;;;5043777;28;20522;-75
2022/01/10 12:06:50;;;;;;;39.97;22.05;;;;;;;;;;5035844;28;20127;-75
2022/01/10 12:09:16;;;;;;;45.70;23.50;;;;;;;;;;5031136;28;20049;-75
2022/01/10 12:11:45;;;;;;;36.78;20.23;;;;;;;;;;5019878;28;20075;-75
2022/01/10 12:14:11;;;;;;;41.30;20.23;;;;;;;;;;5035930;28;20527;-75
2022/01/10 12:16:37;;;;;;;42.67;20.10;;;;;;;;;;5035756;28;20068;-76
2022/01/10 12:19:07;;;;;;;41.42;20.75;;;;;;;;;;5035865;28;20166;-75
2022/01/10 12:21:33;;;;;;;37.63;20.38;;;;;;;;;;5018660;28;20443;-74
2022/01/10 12:24:00;;;;;;;38.42;20.88;;;;;;;;;;5057566;22;20033;-68
2022/01/10 12:26:27;;;;;;;39.33;20.52;;;5.00;99.90;;;;;;5033944;28;20387;-70
2022/01/10 12:29:00;;;;;;;42.92;19.85;;;5.40;99.90;;;;;;5033706;28;20037;-67
2022/01/10 12:31:28;;;;;;;41.85;18.88;;;5.00;99.90;;;;;;5034657;28;20029;-68
2022/01/10 12:33:56;;;;;;;43.15;21.77;;;5.20;99.90;;;;;;5035586;28;20040;-68
2022/01/10 12:36:23;;;;;;;42.78;20.38;;;5.20;99.90;;;;;;5034949;28;20039;-70
2022/01/10 12:38:51;;;;;;;40.70;20.55;;;;;;;;;;5034690;28;20139;-70
2022/01/10 12:41:19;;;;;;;42.25;20.80;;;;;;;;;;5036083;28;20033;-70
2022/01/10 12:43:46;;;;;;;34.65;18.92;;;;;;;;;;5055994;28;20063;-70
2022/01/10 12:46:12;;;;;;;38.28;19.83;;;;;;;;;;5055680;28;20048;-70
2022/01/10 12:48:39;;;;;;;34.92;20.40;;;;;;;;;;5055593;28;20037;-70
2022/01/10 12:51:05;;;;;;;38.28;19.52;;;;;;;;;;5054771;28;20165;-71
2022/01/10 12:53:31;;;;;;;53.33;20.05;;;5.30;99.90;;;;;;5054609;28;20037;-71
2022/01/10 12:55:57;;;;;;;40.80;19.35;;;;;;;;;;5042945;28;20502;-72
2022/01/10 12:58:23;;;;;;;43.33;21.50;;;;;;;;;;5034249;28;20033;-70
2022/01/10 13:00:49;;;;;;;37.58;19.70;;;;;;;;;;5034594;28;20083;-69
2022/01/10 13:03:16;;;;;;;40.30;20.45;;;5.40;99.90;;;;;;5035109;28;20043;-69
2022/01/10 13:05:42;;;;;;;46.13;19.98;;;;;;;;;;5034743;28;20044;-69
2022/01/10 13:08:08;;;;;;;42.53;19.80;;;5.40;99.90;;;;;;5018379;28;20076;-70
2022/01/10 13:10:37;;;;;;;34.75;18.40;;;;;;;;;;5018783;28;20181;-66
2022/01/10 13:13:03;;;;;;;35.67;19.08;;;;;;;;;;5034687;28;20051;-69
2022/01/10 13:15:43;;;;;;;38.97;19.55;;;5.50;99.90;;;;;;5034811;28;20044;-70
2022/01/10 13:18:12;;;;;;;43.65;20.52;;;5.40;99.90;;;;;;5035031;28;20072;-69
2022/01/10 13:20:39;;;;;;;41.83;19.58;;;5.40;99.90;;;;;;5034709;28;20037;-68
2022/01/10 13:23:07;;;;;;;36.83;18.25;;;;;;;;;;5035159;28;20115;-68
2022/01/10 13:25:37;;;;;;;41.17;18.95;;;;;;;;;;5034210;28;20036;-69
2022/01/10 13:28:07;;;;;;;37.35;18.38;;;;;;;;;;5034108;28;20040;-69
2022/01/10 13:30:33;;;;;;;47.40;20.50;;;5.40;99.90;;;;;;5034523;28;20694;-69
2022/01/10 13:33:04;;;;;;;41.72;20.65;;;5.40;99.90;;;;;;5034307;28;20111;-68
2022/01/10 13:35:31;;;;;;;36.58;17.83;;;5.20;99.90;;;;;;5034750;28;20080;-69
2022/01/10 13:37:58;;;;;;;48.25;21.08;;;5.50;99.90;;;;;;5034552;28;20029;-69
2022/01/10 13:40:30;;;;;;;33.92;18.48;;;5.30;99.90;;;;;;5017904;28;20126;-71
2022/01/10 13:42:59;;;;;;;38.30;19.80;;;5.50;99.90;;;;;;5033352;28;20116;-69
2022/01/10 13:45:48;;;;;;;46.35;20.52;;;;;;;;;;5033410;28;20036;-71
2022/01/10 13:48:18;;;;;;;37.75;20.02;;;5.30;99.90;;;;;;5017649;28;20048;-69
2022/01/10 13:50:46;;;;;;;35.72;19.05;;;;;;;;;;5017563;28;20048;-69
2022/01/10 13:53:16;;;;;;;39.70;21.27;;;5.40;99.90;;;;;;5017155;28;20060;-69
2022/01/10 13:55:46;;;;;;;33.50;20.05;;;5.30;99.90;;;;;;5016951;28;20033;-69
2022/01/10 13:58:26;;;;;;;40.40;21.05;;;5.50;99.90;;;;;;5017011;28;20037;-69
2022/01/10 14:00:53;;;;;;;36.35;20.65;;;;;;;;;;5017164;28;20098;-69
2022/01/10 14:03:27;;;;;;;39.95;19.60;;;;;;;;;;5017396;28;20045;-69
2022/01/10 14:06:15;;;;;;;41.55;19.88;;;5.40;99.90;;;;;;5033885;28;20056;-69
2022/01/10 14:08:52;;;;;;;37.90;18.88;;;;;;;;;;5017358;28;20037;-69